Impacts TAF Board
For situational awareness. Not to be used for flight planning purposes.
IDs:

KATL - Atlanta/Hartsfield I, GA, US

Issued at 1952 UTC 21 May 2022
Updated at 2115 UTC 21 May 2022
Potential Impact None Slight Moderate High
Time2052Z 21/22Z 21/23Z 22/00Z 22/01Z 22/02Z 22/03Z 22/04Z 22/05Z 22/06Z 22/07Z 22/08Z 22/09Z 22/10Z>>
Type OBS PRVL
  [TEMP]  
PRVL
  [TEMP]  
PRVL PRVL PRVL PRVL PRVL PRVL PRVL PRVL PRVL PRVL PRVL
VIS 10 >6
  [5]  
>6
  [5]  
>6 >6 >6 >6 >6 >6 >6 >6 >6 >6 >6
CIG 250 250
  [30]  
250
  [30]  
60 60 60 60 -- -- -- -- -- -- --
Cover BKN BKN
  [BKN]  
BKN
  [BKN]  
BKN BKN BKN BKN SCT SCT SCT SCT SCT SCT SCT
FltCat VFR VFR
  [MVFR]  
VFR
  [MVFR]  
VFR VFR VFR VFR VFR VFR VFR VFR VFR VFR VFR
WX -- VCSH
  [-SHRA]  
VCSH
  [-SHRA]  
-- -- -- -- -- -- -- -- -- -- --
WDir 270 230
[VRB]
230
[VRB]
190 190 190 190 200 200 200 200 200 200 200
WSpd 8 9
  [10]  
9
  [10]  
8 8 8 8 7 7 7 7 7 7 7
WGst -- --
  [20]  
--
  [20]  
-- -- -- -- -- -- -- -- -- -- --
WSHgt -- --
[--]
--
[--]
-- -- -- -- -- -- -- -- -- -- --
WSDir -- --
[--]
--
[--]
-- -- -- -- -- -- -- -- -- -- --
WSSpd -- --
[--]
--
[--]
-- -- -- -- -- -- -- -- -- -- --
R08/26
XWnd -0 -6 -6 -8 -8 -8 -8 -7 -7 -7 -7 -7 -7 -7
XGst -- 0 0 -- -- -- -- -- -- -- -- -- -- --
R09/27
XWnd -0 -6 -6 -8 -8 -8 -8 -7 -7 -7 -7 -7 -7 -7
XGst -- 0 0 -- -- -- -- -- -- -- -- -- -- --
R10/28
XWnd -0 -6 -6 -8 -8 -8 -8 -7 -7 -7 -7 -7 -7 -7
XGst -- 0 0 -- -- -- -- -- -- -- -- -- -- --
Raw TAF
KATL 211952Z 2120/2224 23009KT P6SM VCSH FEW050 BKN250
  TEMPO 2120/2124 VRB10G20KT 5SM -SHRA BKN030
  FM220000 19008KT P6SM BKN060 BKN200
  FM220400 20007KT P6SM SCT120
  FM221200 24006KT P6SM SCT015
  FM221500 24007KT P6SM BKN025
  PROB30 2215/2220 4SM SHRA BR OVC015
  FM222000 22007KT P6SM SHRA SCT050


Raw METAR
KATL 212052Z 27008KT 10SM FEW055 BKN250 31/17 A3010 RMK AO2 SLP181 CB DSNT SE TCU DSNT N AND E T03060167 58024
KATL 211952Z 25011G17KT 10SM FEW050 BKN250 31/17 A3013 RMK AO2 SLP191 CB DSNT SE TCU DSNT W-N-NE T03110167
KATL 211852Z 26008G16KT 10SM FEW048TCU BKN250 31/18 A3015 RMK AO2 SLP198 TCU N AND DSNT W-NW T03060178

METAR Board
Radar Display
Forecast Discussion
For situational awareness. Not to be used for flight planning purposes.